EW5887 Selfoss IS current weather conditions

sailwx.info

Wind from 245 at 3 knots gusting 6

Air temperature 5.0° C
Dewpoint 4.1° C

Last reported at 2019-Oct-21 07:00 UTC.
Time now 2019-Oct-21 07:55 UTC

Location: N 64°07' W 021°04'.
View on Google Maps.

See reports from other nearby stations

  
Tides and Currents Weather Stations Pressure Air Temp Water Temp Dewpoint Dewpoint Depression Visibility Wind Speed Wind Dir Waves Ship Positions
date/time (UTC)wind fromknots sea level pressurealtimeterstation pressurevisibilityair tempwater tempwave heightnotes
2019-Oct-21 07:00 245 3 gusting 6 5.0
2019-Oct-21 06:45 163 5 gusting 11 5.0
2019-Oct-21 06:30 331 6 gusting 13 5.6
2019-Oct-21 06:15 297 2 gusting 12 5.6
2019-Oct-21 06:00 332 8 gusting 14 6.1
2019-Oct-21 05:45 340 11 gusting 16 6.1
2019-Oct-21 05:30 298 9 gusting 15 6.1
2019-Oct-21 05:15 282 7 gusting 13 6.1
2019-Oct-21 05:00 269 2 gusting 6 5.6
2019-Oct-21 04:47 259 2 gusting 6 5.6
2019-Oct-21 04:45 238 1 gusting 6 5.6
2019-Oct-21 04:31 340 1 gusting 11 6.1
2019-Oct-21 04:18 126 3 gusting 8 5.6
2019-Oct-21 04:01 171 2 gusting 9 6.1
2019-Oct-21 03:48 087 5 gusting 13 6.1
2019-Oct-21 03:31 282 5 gusting 8 6.1
2019-Oct-21 03:16 234 3 gusting 10 6.1
2019-Oct-21 03:01 226 6 gusting 9 6.7
2019-Oct-21 02:46 174 2 gusting 6 6.7
2019-Oct-21 02:31 157 6 gusting 10 6.7
2019-Oct-21 02:16 140 2 gusting 3 7.2
2019-Oct-21 02:01 238 1 gusting 6 7.2
2019-Oct-21 01:46 234 2 gusting 8 7.2
2019-Oct-21 01:31 224 6 gusting 10 7.2
2019-Oct-21 01:16 227 6 gusting 10 7.8
2019-Oct-21 01:01 225 6 gusting 8 7.8
2019-Oct-21 00:45 200 6 gusting 11 7.8
2019-Oct-21 00:31 278 4 gusting 9 8.3
2019-Oct-21 00:16 214 3 gusting 8 8.3
2019-Oct-21 00:00 214 7 gusting 12 8.3
2019-Oct-20 23:45 229 8 gusting 15 8.3
2019-Oct-20 23:30 227 9 gusting 14 8.3
2019-Oct-20 23:15 196 9 gusting 19 8.3
2019-Oct-20 23:00 206 14 gusting 20 8.3
2019-Oct-20 22:45 214 14 gusting 19 8.3
2019-Oct-20 22:30 200 13 gusting 21 8.3
2019-Oct-20 22:15 217 12 gusting 19 8.3
2019-Oct-20 22:03 218 16 gusting 24 8.3
2019-Oct-20 21:47 200 17 gusting 27 8.3
2019-Oct-20 21:31 215 19 gusting 26 8.3
2019-Oct-20 21:17 198 19 gusting 27 7.8
2019-Oct-20 21:01 200 18 gusting 26 7.8
2019-Oct-20 20:45 200 18 gusting 28 7.8
2019-Oct-20 20:30 204 19 gusting 26 7.8
2019-Oct-20 20:17 199 19 gusting 28 7.8
2019-Oct-20 20:01 198 16 gusting 25 7.8
2019-Oct-20 19:31 165 17 gusting 26 7.8
2019-Oct-20 19:15 175 17 gusting 25 7.2
2019-Oct-20 19:01 194 16 gusting 24 7.2
2019-Oct-20 18:45 171 13 gusting 19 6.1
2019-Oct-20 18:30 166 15 gusting 19 5.6
2019-Oct-20 18:00 153 14 gusting 20 5.6
2019-Oct-20 17:45 156 15 gusting 20 5.0
2019-Oct-20 17:31 154 13 gusting 19 5.0
2019-Oct-20 17:16 158 13 gusting 20 5.0
2019-Oct-20 17:03 153 13 gusting 21 5.0
2019-Oct-20 16:46 157 12 gusting 24 5.0
2019-Oct-20 16:31 187 16 gusting 23 5.0
2019-Oct-20 16:16 166 16 gusting 24 5.0
2019-Oct-20 16:01 182 17 gusting 24 5.0
2019-Oct-20 15:46 177 15 gusting 21 5.0
2019-Oct-20 15:31 165 11 gusting 16 5.0
2019-Oct-20 15:16 152 12 gusting 15 5.0
2019-Oct-20 15:00 154 9 gusting 18 5.0
2019-Oct-20 14:45 165 8 gusting 14 5.0
2019-Oct-20 14:30 163 8 gusting 13 5.0
2019-Oct-20 14:15 158 10 gusting 17 5.0
2019-Oct-20 14:00 176 10 gusting 15 4.4
2019-Oct-20 13:45 169 10 gusting 17 4.4
2019-Oct-20 13:30 139 8 gusting 13 3.9
2019-Oct-20 13:15 147 8 gusting 13 3.3
2019-Oct-20 13:00 123 6 gusting 12 3.9
2019-Oct-20 12:45 132 5 gusting 9 3.3
2019-Oct-20 12:32 166 7 gusting 10 3.3
2019-Oct-20 12:16 142 4 gusting 8 3.3
2019-Oct-20 12:02 173 6 gusting 8 2.8
2019-Oct-20 11:31 244 2.8
2019-Oct-20 11:17 175 4 gusting 6 2.2
2019-Oct-20 11:01 141 4 gusting 7 2.2
2019-Oct-20 10:47 179 5 gusting 8 2.2
2019-Oct-20 10:31 192 3 gusting 6 2.2
2019-Oct-20 10:16 161 4 gusting 8 2.2
2019-Oct-20 10:01 161 5 gusting 6 2.2
2019-Oct-20 09:45 165 6 gusting 8 2.2
2019-Oct-20 09:32 147 5 gusting 8 2.2
2019-Oct-20 09:15 152 6 gusting 9 2.2
2019-Oct-20 09:01 172 6 gusting 10 1.7
2019-Oct-20 08:45 168 6 gusting 9 1.7
2019-Oct-20 08:30 142 3 gusting 6 1.7
2019-Oct-20 08:15 144 6 gusting 7 1.7
2019-Oct-20 08:00 144 3 gusting 7 1.7
2019-Oct-20 07:45 158 3 gusting 5 1.7
2019-Oct-20 07:30 142 2 gusting 6 1.7
2019-Oct-20 07:15 183 1 gusting 6 1.7
2019-Oct-20 07:00 165 5 gusting 6 1.7
2019-Oct-20 06:45 173 6 gusting 7 1.7
2019-Oct-20 06:31 153 3 gusting 6 1.7
2019-Oct-20 06:15 151 4 gusting 6 1.7
2019-Oct-20 06:00 154 4 gusting 8 1.7
2019-Oct-20 05:45 150 5 gusting 8 1.7
2019-Oct-20 05:30 138 4 gusting 7 2.2
2019-Oct-20 05:15 137 6 gusting 8 2.2
2019-Oct-20 05:00 146 5 gusting 8 2.2
2019-Oct-20 04:46 137 3 gusting 6 2.2
2019-Oct-20 04:31 150 5 gusting 7 2.2
2019-Oct-20 04:16 136 4 gusting 6 2.2
2019-Oct-20 04:02 146 5 gusting 6 2.8
2019-Oct-20 03:46 134 6 gusting 7 2.8
2019-Oct-20 03:32 153 5 gusting 7 2.8
2019-Oct-20 03:17 136 3 gusting 6 2.8
2019-Oct-20 03:01 148 3 gusting 5 2.8
2019-Oct-20 02:46 156 3 gusting 5 2.8
2019-Oct-20 02:31 142 3 gusting 5 2.8
2019-Oct-20 02:16 160 3 gusting 4 2.8
2019-Oct-20 02:02 168 2 gusting 4 2.8
2019-Oct-20 01:46 144 4 gusting 6 2.8
2019-Oct-20 01:31 141 3 gusting 6 2.8
2019-Oct-20 01:16 144 3 gusting 4 2.8
2019-Oct-20 01:00 122 2 gusting 6 2.8
2019-Oct-20 00:47 133 4 gusting 6 2.8
2019-Oct-20 00:31 137 3 gusting 6 2.8
2019-Oct-20 00:16 146 3 gusting 6 2.8
2019-Oct-20 00:01 130 3 gusting 6 2.8
2019-Oct-19 23:46 128 3 gusting 6 2.8
2019-Oct-19 23:31 130 2 gusting 6 2.8
2019-Oct-19 23:16 137 3 gusting 6 2.2
2019-Oct-19 23:00 130 4 gusting 6 2.2
2019-Oct-19 22:45 152 4 gusting 6 1.7
2019-Oct-19 22:31 133 3 gusting 6 1.7
2019-Oct-19 22:15 173 3 gusting 6 1.7
2019-Oct-19 22:01 165 3 gusting 5 1.1
2019-Oct-19 21:46 188 2 gusting 3 1.1
2019-Oct-19 21:30 213 0 gusting 3 1.7
2019-Oct-19 21:15 277 0 gusting 2 2.8
2019-Oct-19 21:00 247 1 gusting 6 2.8
2019-Oct-19 20:46 262 1 gusting 3 2.8
2019-Oct-19 20:30 254 0 gusting 3 3.9
2019-Oct-19 20:16 280 3 gusting 8 4.4
2019-Oct-19 20:00 281 1 gusting 6 3.9
2019-Oct-19 19:45 296 0 gusting 2 3.9
2019-Oct-19 19:30 233 2 gusting 5 3.3
2019-Oct-19 19:15 281 3.3
2019-Oct-19 19:00 229 0 gusting 2 3.3
2019-Oct-19 18:45 258 0 gusting 2 3.3
2019-Oct-19 18:30 240 0 gusting 2 3.3
2019-Oct-19 18:15 238 0 gusting 2 3.9
2019-Oct-19 18:00 275 0 gusting 3 3.9
2019-Oct-19 17:45 229 0 gusting 5 3.9
2019-Oct-19 17:30 229 0 gusting 4 3.9
2019-Oct-19 17:15 229 1 gusting 4 4.4
2019-Oct-19 17:00 286 2 gusting 6 4.4
2019-Oct-19 16:45 259 2 gusting 7 5.0
2019-Oct-19 16:30 271 1 gusting 6 4.4
2019-Oct-19 16:15 289 2 gusting 6 5.0
2019-Oct-19 16:00 027 0 gusting 1 5.0
2019-Oct-19 15:45 324 5.0
2019-Oct-19 15:30 271 0 gusting 4 5.0
2019-Oct-19 15:15 346 2 gusting 8 5.0
2019-Oct-19 15:00 005 2 gusting 4 5.0
2019-Oct-19 14:45 028 2 gusting 4 5.0
2019-Oct-19 14:30 034 3 gusting 5 5.0
2019-Oct-19 14:15 360 4 gusting 6 5.6
2019-Oct-19 14:02 304 4 gusting 8 5.0
2019-Oct-19 13:47 205 0 gusting 4 5.0
2019-Oct-19 13:31 213 4.4
2019-Oct-19 13:16 065 4.4
2019-Oct-19 13:01 065 2 gusting 4 3.9
2019-Oct-19 12:46 061 0 gusting 3 4.4
2019-Oct-19 12:32 052 1 gusting 2 4.4
2019-Oct-19 12:17 355 0 gusting 3 3.9
2019-Oct-19 12:01 325 1 gusting 3 3.9
2019-Oct-19 11:47 165 3.9
2019-Oct-19 11:31 164 3.9
2019-Oct-19 11:16 164 3.3
2019-Oct-19 11:01 165 3.3
2019-Oct-19 10:45 164 3.3
2019-Oct-19 10:31 165 1 gusting 2 2.8
2019-Oct-19 10:16 164 0 gusting 2 2.8
2019-Oct-19 10:02 155 1 gusting 4 2.8
2019-Oct-19 09:46 135 0 gusting 2 2.8
2019-Oct-19 09:31 118 1 gusting 3 2.8
2019-Oct-19 09:16 146 2.2
2019-Oct-19 09:01 106 2.2
2019-Oct-19 08:45 173 2.2
2019-Oct-19 08:30 039 2 gusting 4 2.2
2019-Oct-19 08:15 192 0 gusting 1 2.2
2019-Oct-19 08:01 191 1.7
2019-Oct-19 07:45 129 3 gusting 6 1.7
2019-Oct-19 07:31 152 3 gusting 7 1.7
2019-Oct-19 07:15 147 5 gusting 7 1.7
2019-Oct-19 07:00 155 4 gusting 6 1.7